sensor_id;sensor_type;location;lat;lon;timestamp;pressure;altitude;pressure_sealevel;temperature;humidity
39265;BME280;42646;51.910;7.724;2024-01-25T00:00:51;101947.81;;;9.16;89.60
39265;BME280;42646;51.910;7.724;2024-01-25T00:03:19;101947.81;;;9.16;89.77
39265;BME280;42646;51.910;7.724;2024-01-25T00:05:47;101953.22;;;9.14;89.77
39265;BME280;42646;51.910;7.724;2024-01-25T00:08:16;101954.47;;;9.08;90.09
39265;BME280;42646;51.910;7.724;2024-01-25T00:10:44;101947.13;;;9.12;90.09
39265;BME280;42646;51.910;7.724;2024-01-25T00:13:12;101949.78;;;9.12;89.92
39265;BME280;42646;51.910;7.724;2024-01-25T00:15:40;101954.19;;;9.13;90.14
39265;BME280;42646;51.910;7.724;2024-01-25T00:18:08;101950.19;;;9.06;90.31
39265;BME280;42646;51.910;7.724;2024-01-25T00:20:36;101941.25;;;9.07;90.65
39265;BME280;42646;51.910;7.724;2024-01-25T00:23:04;101946.56;;;9.07;90.38
39265;BME280;42646;51.910;7.724;2024-01-25T00:25:31;101944.13;;;9.04;90.34
39265;BME280;42646;51.910;7.724;2024-01-25T00:27:59;101941.59;;;9.02;90.88
39265;BME280;42646;51.910;7.724;2024-01-25T00:30:28;101948.69;;;9.02;90.96
39265;BME280;42646;51.910;7.724;2024-01-25T00:32:56;101944.50;;;8.98;91.16
39265;BME280;42646;51.910;7.724;2024-01-25T00:35:25;101946.44;;;8.96;91.39
39265;BME280;42646;51.910;7.724;2024-01-25T00:37:54;101946.88;;;8.88;91.55
39265;BME280;42646;51.910;7.724;2024-01-25T00:40:22;101946.13;;;8.86;91.79
39265;BME280;42646;51.910;7.724;2024-01-25T00:42:50;101939.50;;;8.79;92.17
39265;BME280;42646;51.910;7.724;2024-01-25T00:45:21;101944.88;;;8.77;92.42
39265;BME280;42646;51.910;7.724;2024-01-25T00:47:51;101947.00;;;8.72;92.49
39265;BME280;42646;51.910;7.724;2024-01-25T00:50:20;101954.28;;;8.69;92.64
39265;BME280;42646;51.910;7.724;2024-01-25T00:52:51;101963.47;;;8.63;92.98
39265;BME280;42646;51.910;7.724;2024-01-25T00:55:19;101966.22;;;8.62;93.15
39265;BME280;42646;51.910;7.724;2024-01-25T00:57:48;101966.22;;;8.62;92.84
39265;BME280;42646;51.910;7.724;2024-01-25T01:00:17;101964.78;;;8.56;93.56
39265;BME280;42646;51.910;7.724;2024-01-25T01:02:45;101964.22;;;8.51;94.14
39265;BME280;42646;51.910;7.724;2024-01-25T01:05:15;101959.97;;;8.48;94.14
39265;BME280;42646;51.910;7.724;2024-01-25T01:07:43;101965.28;;;8.48;94.39
39265;BME280;42646;51.910;7.724;2024-01-25T01:10:12;101969.72;;;8.48;94.54
39265;BME280;42646;51.910;7.724;2024-01-25T01:12:40;101966.28;;;8.46;94.77
39265;BME280;42646;51.910;7.724;2024-01-25T01:15:09;101977.75;;;8.46;94.86
39265;BME280;42646;51.910;7.724;2024-01-25T01:17:36;101979.44;;;8.47;95.06
39265;BME280;42646;51.910;7.724;2024-01-25T01:20:05;101994.34;;;8.50;94.82
39265;BME280;42646;51.910;7.724;2024-01-25T01:22:35;101991.78;;;8.48;95.01
39265;BME280;42646;51.910;7.724;2024-01-25T01:25:03;101989.19;;;8.47;94.92
39265;BME280;42646;51.910;7.724;2024-01-25T01:27:31;101981.34;;;8.45;95.10
39265;BME280;42646;51.910;7.724;2024-01-25T01:29:58;101980.66;;;8.42;95.46
39265;BME280;42646;51.910;7.724;2024-01-25T01:32:26;101982.09;;;8.47;94.76
39265;BME280;42646;51.910;7.724;2024-01-25T01:34:54;101981.44;;;8.44;94.99
39265;BME280;42646;51.910;7.724;2024-01-25T01:37:22;101993.28;;;8.38;95.08
39265;BME280;42646;51.910;7.724;2024-01-25T01:39:51;101996.03;;;8.37;95.12
39265;BME280;42646;51.910;7.724;2024-01-25T01:42:21;102004.13;;;8.34;95.39
39265;BME280;42646;51.910;7.724;2024-01-25T01:44:50;101999.59;;;8.36;94.89
39265;BME280;42646;51.910;7.724;2024-01-25T01:47:19;102004.91;;;8.36;95.12
39265;BME280;42646;51.910;7.724;2024-01-25T01:49:47;102002.50;;;8.31;95.48
39265;BME280;42646;51.910;7.724;2024-01-25T01:52:15;102002.50;;;8.31;95.45
39265;BME280;42646;51.910;7.724;2024-01-25T01:54:45;102005.81;;;8.35;94.92
39265;BME280;42646;51.910;7.724;2024-01-25T01:57:15;102002.78;;;8.26;95.61
39265;BME280;42646;51.910;7.724;2024-01-25T01:59:43;102006.38;;;8.25;95.46
39265;BME280;42646;51.910;7.724;2024-01-25T02:02:11;102005.53;;;8.25;95.64
39265;BME280;42646;51.910;7.724;2024-01-25T02:04:39;102006.63;;;8.21;95.93
39265;BME280;42646;51.910;7.724;2024-01-25T02:07:07;102002.44;;;8.17;96.00
39265;BME280;42646;51.910;7.724;2024-01-25T02:09:35;102004.16;;;8.18;95.84
39265;BME280;42646;51.910;7.724;2024-01-25T02:12:03;102008.09;;;8.11;95.89
39265;BME280;42646;51.910;7.724;2024-01-25T02:14:32;102012.81;;;8.06;96.14
39265;BME280;42646;51.910;7.724;2024-01-25T02:17:00;102015.56;;;8.04;96.32
39265;BME280;42646;51.910;7.724;2024-01-25T02:19:28;102013.75;;;8.04;95.98
39265;BME280;42646;51.910;7.724;2024-01-25T02:21:57;102015.81;;;7.99;95.89
39265;BME280;42646;51.910;7.724;2024-01-25T02:24:27;102018.81;;;7.93;96.21
39265;BME280;42646;51.910;7.724;2024-01-25T02:26:54;102012.78;;;7.91;96.35
39265;BME280;42646;51.910;7.724;2024-01-25T02:29:22;102015.88;;;7.84;96.68
39265;BME280;42646;51.910;7.724;2024-01-25T02:31:50;102024.91;;;7.80;96.93
39265;BME280;42646;51.910;7.724;2024-01-25T02:34:18;102018.78;;;7.79;96.48
39265;BME280;42646;51.910;7.724;2024-01-25T02:36:45;102038.41;;;7.75;96.91
39265;BME280;42646;51.910;7.724;2024-01-25T02:39:13;102040.31;;;7.73;96.88
39265;BME280;42646;51.910;7.724;2024-01-25T02:41:42;102037.75;;;7.71;96.72
39265;BME280;42646;51.910;7.724;2024-01-25T02:44:11;102035.34;;;7.67;97.30
39265;BME280;42646;51.910;7.724;2024-01-25T02:46:39;102047.91;;;7.63;97.57
39265;BME280;42646;51.910;7.724;2024-01-25T02:49:06;102045.50;;;7.59;97.81
39265;BME280;42646;51.910;7.724;2024-01-25T02:51:34;102040.13;;;7.60;97.37
39265;BME280;42646;51.910;7.724;2024-01-25T02:54:02;102033.47;;;7.53;97.99
39265;BME280;42646;51.910;7.724;2024-01-25T02:56:30;102042.53;;;7.49;97.83
39265;BME280;42646;51.910;7.724;2024-01-25T02:59:02;102031.13;;;7.47;97.85
39265;BME280;42646;51.910;7.724;2024-01-25T03:01:37;102037.56;;;7.43;98.13
39265;BME280;42646;51.910;7.724;2024-01-25T03:04:05;102041.22;;;7.40;98.53
39265;BME280;42646;51.910;7.724;2024-01-25T03:06:33;102052.94;;;7.36;98.70
39265;BME280;42646;51.910;7.724;2024-01-25T03:09:01;102050.34;;;7.35;98.54
39265;BME280;42646;51.910;7.724;2024-01-25T03:11:31;102046.94;;;7.33;98.85
39265;BME280;42646;51.910;7.724;2024-01-25T03:13:58;102062.81;;;7.33;98.52
39265;BME280;42646;51.910;7.724;2024-01-25T03:16:27;102055.97;;;7.29;98.91
39265;BME280;42646;51.910;7.724;2024-01-25T03:18:55;102055.41;;;7.23;98.92
39265;BME280;42646;51.910;7.724;2024-01-25T03:21:23;102056.47;;;7.19;99.20
39265;BME280;42646;51.910;7.724;2024-01-25T03:23:51;102060.94;;;7.19;99.36
39265;BME280;42646;51.910;7.724;2024-01-25T03:26:19;102064.56;;;7.16;99.47
39265;BME280;42646;51.910;7.724;2024-01-25T03:28:46;102072.69;;;7.13;99.52
39265;BME280;42646;51.910;7.724;2024-01-25T03:31:14;102072.00;;;7.10;99.58
39265;BME280;42646;51.910;7.724;2024-01-25T03:33:43;102069.25;;;7.11;99.63
39265;BME280;42646;51.910;7.724;2024-01-25T03:36:13;102074.09;;;7.03;99.67
39265;BME280;42646;51.910;7.724;2024-01-25T03:38:41;102076.94;;;7.00;99.83
39265;BME280;42646;51.910;7.724;2024-01-25T03:41:09;102073.50;;;6.98;100.00
39265;BME280;42646;51.910;7.724;2024-01-25T03:43:37;102085.09;;;6.95;100.00
39265;BME280;42646;51.910;7.724;2024-01-25T03:46:10;102082.53;;;6.94;100.00
39265;BME280;42646;51.910;7.724;2024-01-25T03:48:38;102082.44;;;6.95;100.00
39265;BME280;42646;51.910;7.724;2024-01-25T03:51:07;102074.84;;;6.89;100.00
39265;BME280;42646;51.910;7.724;2024-01-25T03:53:35;102088.16;;;6.88;100.00
39265;BME280;42646;51.910;7.724;2024-01-25T03:56:03;102083.84;;;6.85;100.00
39265;BME280;42646;51.910;7.724;2024-01-25T03:58:31;102083.94;;;6.84;100.00
39265;BME280;42646;51.910;7.724;2024-01-25T04:00:59;102086.72;;;6.81;100.00
39265;BME280;42646;51.910;7.724;2024-01-25T04:03:27;102098.41;;;6.77;100.00
39265;BME280;42646;51.910;7.724;2024-01-25T04:05:54;102105.66;;;6.73;100.00
39265;BME280;42646;51.910;7.724;2024-01-25T04:08:24;102113.75;;;6.70;100.00
39265;BME280;42646;51.910;7.724;2024-01-25T04:10:51;102116.41;;;6.70;100.00
39265;BME280;42646;51.910;7.724;2024-01-25T04:13:19;102109.53;;;6.66;100.00
39265;BME280;42646;51.910;7.724;2024-01-25T04:15:47;102112.50;;;6.60;100.00
39265;BME280;42646;51.910;7.724;2024-01-25T04:18:14;102109.13;;;6.56;100.00
39265;BME280;42646;51.910;7.724;2024-01-25T04:20:43;102106.72;;;6.52;100.00
39265;BME280;42646;51.910;7.724;2024-01-25T04:23:11;102105.84;;;6.51;100.00
39265;BME280;42646;51.910;7.724;2024-01-25T04:25:40;102103.31;;;6.50;100.00
39265;BME280;42646;51.910;7.724;2024-01-25T04:28:08;102108.88;;;6.43;100.00
39265;BME280;42646;51.910;7.724;2024-01-25T04:30:36;102110.81;;;6.40;100.00
39265;BME280;42646;51.910;7.724;2024-01-25T04:33:04;102114.41;;;6.39;100.00
39265;BME280;42646;51.910;7.724;2024-01-25T04:35:32;102111.06;;;6.35;100.00
39265;BME280;42646;51.910;7.724;2024-01-25T04:38:01;102112.06;;;6.33;100.00
39265;BME280;42646;51.910;7.724;2024-01-25T04:40:28;102112.13;;;6.31;100.00
39265;BME280;42646;51.910;7.724;2024-01-25T04:42:58;102111.41;;;6.28;100.00
39265;BME280;42646;51.910;7.724;2024-01-25T04:45:26;102113.22;;;6.27;100.00
39265;BME280;42646;51.910;7.724;2024-01-25T04:47:54;102118.75;;;6.23;100.00
39265;BME280;42646;51.910;7.724;2024-01-25T04:50:21;102121.53;;;6.20;100.00
39265;BME280;42646;51.910;7.724;2024-01-25T04:52:49;102134.88;;;6.16;100.00
39265;BME280;42646;51.910;7.724;2024-01-25T04:55:17;102135.81;;;6.15;100.00
39265;BME280;42646;51.910;7.724;2024-01-25T04:57:46;102143.97;;;6.11;100.00
39265;BME280;42646;51.910;7.724;2024-01-25T05:00:20;102143.25;;;6.07;100.00
39265;BME280;42646;51.910;7.724;2024-01-25T05:02:49;102139.84;;;6.05;100.00
39265;BME280;42646;51.910;7.724;2024-01-25T05:05:16;102143.53;;;6.01;100.00
39265;BME280;42646;51.910;7.724;2024-01-25T05:07:44;102148.94;;;5.98;100.00
39265;BME280;42646;51.910;7.724;2024-01-25T05:10:12;102149.97;;;5.96;100.00
39265;BME280;42646;51.910;7.724;2024-01-25T05:12:40;102160.66;;;5.93;100.00
39265;BME280;42646;51.910;7.724;2024-01-25T05:15:08;102159.00;;;5.90;100.00
39265;BME280;42646;51.910;7.724;2024-01-25T05:17:37;102157.41;;;5.86;100.00
39265;BME280;42646;51.910;7.724;2024-01-25T05:20:06;102155.78;;;5.83;100.00
39265;BME280;42646;51.910;7.724;2024-01-25T05:22:34;102162.97;;;5.80;100.00
39265;BME280;42646;51.910;7.724;2024-01-25T05:25:07;102161.44;;;5.76;100.00
39265;BME280;42646;51.910;7.724;2024-01-25T05:27:36;102163.41;;;5.71;100.00
39265;BME280;42646;51.910;7.724;2024-01-25T05:30:05;102157.50;;;5.66;100.00
39265;BME280;42646;51.910;7.724;2024-01-25T05:32:33;102155.81;;;5.63;100.00
39265;BME280;42646;51.910;7.724;2024-01-25T05:35:02;102154.34;;;5.57;100.00
39265;BME280;42646;51.910;7.724;2024-01-25T05:37:30;102154.47;;;5.54;100.00
39265;BME280;42646;51.910;7.724;2024-01-25T05:39:58;102145.03;;;5.49;100.00
39265;BME280;42646;51.910;7.724;2024-01-25T05:42:25;102150.47;;;5.46;100.00
39265;BME280;42646;51.910;7.724;2024-01-25T05:44:53;102157.75;;;5.41;100.00
39265;BME280;42646;51.910;7.724;2024-01-25T05:47:21;102154.44;;;5.35;100.00
39265;BME280;42646;51.910;7.724;2024-01-25T05:49:49;102151.00;;;5.33;100.00
39265;BME280;42646;51.910;7.724;2024-01-25T05:52:18;102150.22;;;5.31;100.00
39265;BME280;42646;51.910;7.724;2024-01-25T05:54:47;102149.50;;;5.28;100.00
39265;BME280;42646;51.910;7.724;2024-01-25T05:57:15;102158.41;;;5.25;100.00
39265;BME280;42646;51.910;7.724;2024-01-25T05:59:43;102161.91;;;5.26;100.00
39265;BME280;42646;51.910;7.724;2024-01-25T06:02:11;102159.44;;;5.21;100.00
39265;BME280;42646;51.910;7.724;2024-01-25T06:04:39;102162.22;;;5.18;100.00
39265;BME280;42646;51.910;7.724;2024-01-25T06:07:07;102155.38;;;5.14;100.00
39265;BME280;42646;51.910;7.724;2024-01-25T06:09:36;102163.34;;;5.13;100.00
39265;BME280;42646;51.910;7.724;2024-01-25T06:12:05;102165.22;;;5.11;100.00
39265;BME280;42646;51.910;7.724;2024-01-25T06:14:32;102167.13;;;5.07;100.00
39265;BME280;42646;51.910;7.724;2024-01-25T06:17:00;102166.34;;;5.05;100.00
39265;BME280;42646;51.910;7.724;2024-01-25T06:19:28;102162.88;;;5.03;100.00
39265;BME280;42646;51.910;7.724;2024-01-25T06:21:56;102164.75;;;5.01;100.00
39265;BME280;42646;51.910;7.724;2024-01-25T06:24:23;102166.44;;;5.02;100.00
39265;BME280;42646;51.910;7.724;2024-01-25T06:26:53;102160.47;;;4.98;100.00
39265;BME280;42646;51.910;7.724;2024-01-25T06:29:21;102168.31;;;5.00;100.00
39265;BME280;42646;51.910;7.724;2024-01-25T06:31:48;102164.06;;;4.96;100.00
39265;BME280;42646;51.910;7.724;2024-01-25T06:34:16;102169.41;;;4.94;100.00
39265;BME280;42646;51.910;7.724;2024-01-25T06:36:44;102169.53;;;4.91;100.00
39265;BME280;42646;51.910;7.724;2024-01-25T06:39:12;102168.75;;;4.89;100.00
39265;BME280;42646;51.910;7.724;2024-01-25T06:41:39;102173.25;;;4.87;100.00
39265;BME280;42646;51.910;7.724;2024-01-25T06:44:09;102170.72;;;4.84;100.00
39265;BME280;42646;51.910;7.724;2024-01-25T06:46:37;102180.50;;;4.82;100.00
39265;BME280;42646;51.910;7.724;2024-01-25T06:49:05;102181.41;;;4.81;100.00
39265;BME280;42646;51.910;7.724;2024-01-25T06:51:33;102186.72;;;4.79;100.00
39265;BME280;42646;51.910;7.724;2024-01-25T06:54:01;102184.16;;;4.78;100.00
39265;BME280;42646;51.910;7.724;2024-01-25T06:56:28;102193.84;;;4.77;100.00
39265;BME280;42646;51.910;7.724;2024-01-25T06:58:57;102194.84;;;4.75;100.00
39265;BME280;42646;51.910;7.724;2024-01-25T07:01:26;102209.84;;;4.73;100.00
39265;BME280;42646;51.910;7.724;2024-01-25T07:03:55;102205.66;;;4.69;100.00
39265;BME280;42646;51.910;7.724;2024-01-25T07:06:23;102210.84;;;4.70;100.00
39265;BME280;42646;51.910;7.724;2024-01-25T07:08:52;102213.59;;;4.67;100.00
39265;BME280;42646;51.910;7.724;2024-01-25T07:11:20;102209.31;;;4.65;100.00
39265;BME280;42646;51.910;7.724;2024-01-25T07:13:48;102215.44;;;4.65;100.00
39265;BME280;42646;51.910;7.724;2024-01-25T07:16:16;102207.59;;;4.64;100.00
39265;BME280;42646;51.910;7.724;2024-01-25T07:18:47;102209.44;;;4.62;100.00
39265;BME280;42646;51.910;7.724;2024-01-25T07:21:15;102208.47;;;4.64;100.00
39265;BME280;42646;51.910;7.724;2024-01-25T07:23:42;102212.97;;;4.61;100.00
39265;BME280;42646;51.910;7.724;2024-01-25T07:26:16;102215.69;;;4.59;100.00
39265;BME280;42646;51.910;7.724;2024-01-25T07:28:44;102218.44;;;4.56;100.00
39265;BME280;42646;51.910;7.724;2024-01-25T07:31:12;102222.84;;;4.55;100.00
39265;BME280;42646;51.910;7.724;2024-01-25T07:33:40;102221.75;;;4.61;100.00
39265;BME280;42646;51.910;7.724;2024-01-25T07:36:09;102225.47;;;4.55;100.00
39265;BME280;42646;51.910;7.724;2024-01-25T07:38:37;102231.69;;;4.54;100.00
39265;BME280;42646;51.910;7.724;2024-01-25T07:41:04;102232.59;;;4.53;100.00
39265;BME280;42646;51.910;7.724;2024-01-25T07:43:32;102233.47;;;4.54;100.00
39265;BME280;42646;51.910;7.724;2024-01-25T07:46:00;102227.34;;;4.53;100.00
39265;BME280;42646;51.910;7.724;2024-01-25T07:48:28;102236.16;;;4.52;100.00
39265;BME280;42646;51.910;7.724;2024-01-25T07:50:56;102236.16;;;4.52;100.00
39265;BME280;42646;51.910;7.724;2024-01-25T07:53:25;102230.81;;;4.54;100.00
39265;BME280;42646;51.910;7.724;2024-01-25T07:55:52;102233.47;;;4.54;100.00
39265;BME280;42646;51.910;7.724;2024-01-25T07:58:20;102238.66;;;4.55;100.00
39265;BME280;42646;51.910;7.724;2024-01-25T08:00:48;102241.97;;;4.61;100.00
39265;BME280;42646;51.910;7.724;2024-01-25T08:03:17;102249.88;;;4.61;100.00
39265;BME280;42646;51.910;7.724;2024-01-25T08:05:45;102256.88;;;4.62;100.00
39265;BME280;42646;51.910;7.724;2024-01-25T08:08:17;102253.34;;;4.63;100.00
39265;BME280;42646;51.910;7.724;2024-01-25T08:10:46;102260.31;;;4.64;100.00
39265;BME280;42646;51.910;7.724;2024-01-25T08:13:13;102252.34;;;4.65;100.00
39265;BME280;42646;51.910;7.724;2024-01-25T08:15:41;102260.19;;;4.67;100.00
39265;BME280;42646;51.910;7.724;2024-01-25T08:18:09;102254.00;;;4.68;100.00
39265;BME280;42646;51.910;7.724;2024-01-25T08:20:37;102254.72;;;4.71;100.00
39265;BME280;42646;51.910;7.724;2024-01-25T08:23:06;102251.84;;;4.77;100.00
39265;BME280;42646;51.910;7.724;2024-01-25T08:25:35;102244.72;;;4.79;100.00
39265;BME280;42646;51.910;7.724;2024-01-25T08:28:04;102247.31;;;4.81;100.00
39265;BME280;42646;51.910;7.724;2024-01-25T08:30:32;102247.84;;;4.89;100.00
39265;BME280;42646;51.910;7.724;2024-01-25T08:33:01;102247.94;;;4.88;100.00
39265;BME280;42646;51.910;7.724;2024-01-25T08:35:29;102253.03;;;4.92;100.00
39265;BME280;42646;51.910;7.724;2024-01-25T08:37:58;102252.03;;;4.95;100.00
39265;BME280;42646;51.910;7.724;2024-01-25T08:40:25;102247.34;;;5.01;100.00
39265;BME280;42646;51.910;7.724;2024-01-25T08:42:57;102245.50;;;5.03;100.00
39265;BME280;42646;51.910;7.724;2024-01-25T08:45:26;102249.63;;;5.11;100.00
39265;BME280;42646;51.910;7.724;2024-01-25T08:47:54;102246.84;;;5.14;100.00
39265;BME280;42646;51.910;7.724;2024-01-25T08:50:22;102241.38;;;5.18;100.00
39265;BME280;42646;51.910;7.724;2024-01-25T08:52:53;102239.34;;;5.25;100.00
39265;BME280;42646;51.910;7.724;2024-01-25T08:55:21;102243.63;;;5.27;100.00
39265;BME280;42646;51.910;7.724;2024-01-25T08:57:49;102247.91;;;5.30;100.00
39265;BME280;42646;51.910;7.724;2024-01-25T09:00:17;102247.66;;;5.36;100.00
39265;BME280;42646;51.910;7.724;2024-01-25T09:02:46;102259.84;;;5.39;100.00
39265;BME280;42646;51.910;7.724;2024-01-25T09:05:14;102248.13;;;5.46;100.00
39265;BME280;42646;51.910;7.724;2024-01-25T09:07:43;102253.34;;;5.47;100.00
39265;BME280;42646;51.910;7.724;2024-01-25T09:10:10;102248.91;;;5.48;100.00
39265;BME280;42646;51.910;7.724;2024-01-25T09:12:38;102238.94;;;5.54;100.00
39265;BME280;42646;51.910;7.724;2024-01-25T09:15:07;102245.81;;;5.58;100.00
39265;BME280;42646;51.910;7.724;2024-01-25T09:17:35;102246.66;;;5.59;100.00
39265;BME280;42646;51.910;7.724;2024-01-25T09:20:06;102245.72;;;5.60;100.00
39265;BME280;42646;51.910;7.724;2024-01-25T09:22:34;102248.97;;;5.67;100.00
39265;BME280;42646;51.910;7.724;2024-01-25T09:25:02;102251.59;;;5.67;100.00
39265;BME280;42646;51.910;7.724;2024-01-25T09:27:32;102256.69;;;5.71;100.00
39265;BME280;42646;51.910;7.724;2024-01-25T09:30:00;102257.34;;;5.76;100.00
39265;BME280;42646;51.910;7.724;2024-01-25T09:32:28;102250.28;;;5.77;100.00
39265;BME280;42646;51.910;7.724;2024-01-25T09:34:56;102267.69;;;5.81;100.00
39265;BME280;42646;51.910;7.724;2024-01-25T09:37:25;102263.13;;;5.84;100.00
39265;BME280;42646;51.910;7.724;2024-01-25T09:39:54;102267.44;;;5.87;100.00
39265;BME280;42646;51.910;7.724;2024-01-25T09:42:22;102277.06;;;5.88;100.00
39265;BME280;42646;51.910;7.724;2024-01-25T09:44:50;102278.63;;;5.94;100.00
39265;BME280;42646;51.910;7.724;2024-01-25T09:47:20;102284.53;;;5.99;100.00
39265;BME280;42646;51.910;7.724;2024-01-25T09:49:48;102283.53;;;6.01;100.00
39265;BME280;42646;51.910;7.724;2024-01-25T09:52:19;102288.69;;;6.04;100.00
39265;BME280;42646;51.910;7.724;2024-01-25T09:54:53;102287.53;;;6.10;100.00
39265;BME280;42646;51.910;7.724;2024-01-25T09:57:24;102283.78;;;6.15;100.00
39265;BME280;42646;51.910;7.724;2024-01-25T09:59:53;102293.34;;;6.18;100.00
39265;BME280;42646;51.910;7.724;2024-01-25T10:02:22;102286.94;;;6.24;100.00
39265;BME280;42646;51.910;7.724;2024-01-25T10:04:50;102284.06;;;6.28;100.00
39265;BME280;42646;51.910;7.724;2024-01-25T10:07:40;102286.66;;;6.30;100.00
39265;BME280;42646;51.910;7.724;2024-01-25T10:10:10;102278.72;;;6.30;100.00
39265;BME280;42646;51.910;7.724;2024-01-25T10:12:41;102291.00;;;6.31;100.00
39265;BME280;42646;51.910;7.724;2024-01-25T10:15:10;102276.78;;;6.33;100.00
39265;BME280;42646;51.910;7.724;2024-01-25T10:17:39;102285.06;;;6.45;100.00
39265;BME280;42646;51.910;7.724;2024-01-25T10:20:26;102282.50;;;6.43;100.00
39265;BME280;42646;51.910;7.724;2024-01-25T10:22:58;102292.06;;;6.46;100.00
39265;BME280;42646;51.910;7.724;2024-01-25T10:25:29;102294.78;;;6.44;100.00
39265;BME280;42646;51.910;7.724;2024-01-25T10:27:57;102297.22;;;6.49;100.00
39265;BME280;42646;51.910;7.724;2024-01-25T10:30:25;102298.81;;;6.53;100.00
39265;BME280;42646;51.910;7.724;2024-01-25T10:32:53;102289.72;;;6.58;100.00
39265;BME280;42646;51.910;7.724;2024-01-25T10:35:22;102279.84;;;6.62;100.00
39265;BME280;42646;51.910;7.724;2024-01-25T10:37:51;102283.00;;;6.70;100.00
39265;BME280;42646;51.910;7.724;2024-01-25T10:40:20;102284.75;;;6.69;100.00
39265;BME280;42646;51.910;7.724;2024-01-25T10:42:50;102286.41;;;6.72;100.00
39265;BME280;42646;51.910;7.724;2024-01-25T10:45:18;102279.13;;;6.77;100.00
39265;BME280;42646;51.910;7.724;2024-01-25T10:47:48;102280.84;;;6.78;100.00
39265;BME280;42646;51.910;7.724;2024-01-25T10:50:16;102268.31;;;6.82;100.00
39265;BME280;42646;51.910;7.724;2024-01-25T10:52:45;102266.28;;;6.87;100.00
39265;BME280;42646;51.910;7.724;2024-01-25T10:55:14;102266.94;;;6.92;100.00
39265;BME280;42646;51.910;7.724;2024-01-25T10:57:45;102265.84;;;6.96;100.00
39265;BME280;42646;51.910;7.724;2024-01-25T11:00:15;102263.00;;;7.01;100.00
39265;BME280;42646;51.910;7.724;2024-01-25T11:02:44;102251.06;;;7.09;100.00
39265;BME280;42646;51.910;7.724;2024-01-25T11:05:13;102249.28;;;7.10;100.00
39265;BME280;42646;51.910;7.724;2024-01-25T11:07:43;102254.59;;;7.10;100.00
39265;BME280;42646;51.910;7.724;2024-01-25T11:10:13;102250.09;;;7.12;100.00
39265;BME280;42646;51.910;7.724;2024-01-25T11:12:55;102239.25;;;7.16;100.00
39265;BME280;42646;51.910;7.724;2024-01-25T11:15:31;102236.47;;;7.19;100.00
39265;BME280;42646;51.910;7.724;2024-01-25T11:18:00;102242.38;;;7.25;100.00
39265;BME280;42646;51.910;7.724;2024-01-25T11:20:29;102231.63;;;7.28;100.00
39265;BME280;42646;51.910;7.724;2024-01-25T11:22:59;102224.94;;;7.38;100.00
39265;BME280;42646;51.910;7.724;2024-01-25T11:25:27;102233.50;;;7.43;100.00
39265;BME280;42646;51.910;7.724;2024-01-25T11:27:55;102226.84;;;7.52;100.00
39265;BME280;42646;51.910;7.724;2024-01-25T11:30:25;102238.25;;;7.54;100.00
39265;BME280;42646;51.910;7.724;2024-01-25T11:32:53;102232.00;;;7.55;100.00
39265;BME280;42646;51.910;7.724;2024-01-25T11:35:21;102220.56;;;7.54;100.00
39265;BME280;42646;51.910;7.724;2024-01-25T11:37:52;102203.50;;;7.60;100.00
39265;BME280;42646;51.910;7.724;2024-01-25T11:40:20;102197.41;;;7.58;100.00
39265;BME280;42646;51.910;7.724;2024-01-25T11:42:49;102194.50;;;7.62;100.00
39265;BME280;42646;51.910;7.724;2024-01-25T11:45:17;102190.31;;;7.58;100.00
39265;BME280;42646;51.910;7.724;2024-01-25T11:47:46;102185.47;;;7.66;100.00
39265;BME280;42646;51.910;7.724;2024-01-25T11:50:14;102201.28;;;7.68;100.00
39265;BME280;42646;51.910;7.724;2024-01-25T11:52:42;102200.56;;;7.64;100.00
39265;BME280;42646;51.910;7.724;2024-01-25T11:55:11;102207.75;;;7.62;100.00
39265;BME280;42646;51.910;7.724;2024-01-25T11:57:40;102208.59;;;7.63;100.00
39265;BME280;42646;51.910;7.724;2024-01-25T12:00:12;102212.97;;;7.64;100.00
39265;BME280;42646;51.910;7.724;2024-01-25T12:02:41;102204.25;;;7.62;100.00
39265;BME280;42646;51.910;7.724;2024-01-25T12:05:11;102212.81;;;7.67;100.00
39265;BME280;42646;51.910;7.724;2024-01-25T12:07:40;102203.22;;;7.64;100.00
39265;BME280;42646;51.910;7.724;2024-01-25T12:10:10;102198.78;;;7.65;100.00
39265;BME280;42646;51.910;7.724;2024-01-25T12:12:42;102194.38;;;7.65;100.00
39265;BME280;42646;51.910;7.724;2024-01-25T12:15:10;102191.16;;;7.59;100.00
39265;BME280;42646;51.910;7.724;2024-01-25T12:17:39;102184.84;;;7.61;100.00
39265;BME280;42646;51.910;7.724;2024-01-25T12:20:08;102175.97;;;7.62;100.00
39265;BME280;42646;51.910;7.724;2024-01-25T12:22:40;102184.00;;;7.61;100.00
39265;BME280;42646;51.910;7.724;2024-01-25T12:25:08;102170.75;;;7.61;100.00
39265;BME280;42646;51.910;7.724;2024-01-25T12:27:39;102169.59;;;7.66;100.00
39265;BME280;42646;51.910;7.724;2024-01-25T12:30:09;102154.63;;;7.65;100.00
39265;BME280;42646;51.910;7.724;2024-01-25T12:32:36;102150.19;;;7.66;100.00
39265;BME280;42646;51.910;7.724;2024-01-25T12:35:05;102160.69;;;7.67;100.00
39265;BME280;42646;51.910;7.724;2024-01-25T12:37:33;102157.00;;;7.70;100.00
39265;BME280;42646;51.910;7.724;2024-01-25T12:40:03;102150.84;;;7.69;100.00
39265;BME280;42646;51.910;7.724;2024-01-25T12:42:31;102152.50;;;7.72;100.00
39265;BME280;42646;51.910;7.724;2024-01-25T12:44:59;102159.28;;;7.78;100.00
39265;BME280;42646;51.910;7.724;2024-01-25T12:47:27;102143.97;;;7.83;100.00
39265;BME280;42646;51.910;7.724;2024-01-25T12:49:55;102149.09;;;7.86;100.00
39265;BME280;42646;51.910;7.724;2024-01-25T12:52:23;102164.06;;;7.87;100.00
39265;BME280;42646;51.910;7.724;2024-01-25T12:54:51;102153.28;;;7.90;100.00
39265;BME280;42646;51.910;7.724;2024-01-25T12:57:20;102150.47;;;7.93;100.00
39265;BME280;42646;51.910;7.724;2024-01-25T12:59:48;102147.41;;;8.00;100.00